Boortmeerbeek, Belgium
Current Conditions -  °F | °C
As of 3:20 AM on Sunday 26 Oct 2014 (Local Time) from EBBR Reporting Station
Broken Clouds Broken Clouds  
Wind Chill: 52°   Ceiling: 4200
Heat Index: 52°   Visibility: 6mi
Dew Point: 48°   Wind: 7mph
Humidity: 88%   Direction: 210°SSW
Pressure: 30.24"   Gusts: NA
Location:  50.98°N, 4.57°E
Report Text: EBBR 260120Z 21006KT 9999 BKN042 11/09 Q1024 NOSIG
Loading
Personal Weather Stations






























Interactive Weather Map
Tropical Storm Tracking
New forecast layout! Learn more

10-Day Weather Forecast

Advertisements
Track Severe Weather on mobile